Time;durP1;ratioP1;P1;durP2;ratioP2;P2;SDS_P1;SDS_P2;PMS_P1;PMS_P2;Temp;Humidity;BMP_temperature;BMP_pressure;BME280_temperature;BME280_humidity;BME280_pressure;Samples;Min_cycle;Max_cycle;Signal;HPM_P1;HPM_P2
2022/06/02 00:01:41;;;;;;;14.68;13.18;;;11.60;99.90;;;;;;5008714;28;20325;-72
2022/06/02 00:04:19;;;;;;;16.60;14.85;;;11.50;99.90;;;;;;5009935;28;20203;-71
2022/06/02 00:06:51;;;;;;;15.07;13.57;;;11.50;99.90;;;;;;5008841;28;20263;-72
2022/06/02 00:09:35;;;;;;;16.58;14.73;;;11.40;99.90;;;;;;5010408;28;20212;-72
2022/06/02 00:12:08;;;;;;;17.70;15.80;;;11.40;99.90;;;;;;5012203;28;20715;-72
2022/06/02 00:14:47;;;;;;;16.95;14.40;;;11.40;99.90;;;;;;5011867;28;20284;-72
2022/06/02 00:17:24;;;;;;;19.20;14.32;;;11.40;99.90;;;;;;5011252;28;20212;-72
2022/06/02 00:20:00;;;;;;;19.98;16.42;;;11.40;99.90;;;;;;5010899;28;20272;-73
2022/06/02 00:22:35;;;;;;;16.95;14.60;;;11.40;99.90;;;;;;5011791;28;20710;-72
2022/06/02 00:25:09;;;;;;;17.23;15.43;;;11.20;99.90;;;;;;5011800;28;20360;-71
2022/06/02 00:27:46;;;;;;;17.85;14.48;;;11.20;99.90;;;;;;5013867;28;20560;-72
2022/06/02 00:30:20;;;;;;;18.80;16.77;;;11.20;99.90;;;;;;5011738;28;20244;-71
2022/06/02 00:32:56;;;;;;;19.50;16.65;;;11.20;99.90;;;;;;5008612;28;20225;-71
2022/06/02 00:35:35;;;;;;;24.08;17.88;;;11.10;99.90;;;;;;5010275;28;20216;-71
2022/06/02 00:38:05;;;;;;;20.55;15.40;;;11.00;99.90;;;;;;5012327;28;20226;-71
2022/06/02 00:40:35;;;;;;;22.52;17.67;;;11.00;99.90;;;;;;5007565;28;20294;-72
2022/06/02 00:43:16;;;;;;;19.73;16.58;;;11.00;99.90;;;;;;5008707;28;20225;-72
2022/06/02 00:45:45;;;;;;;22.38;17.88;;;10.90;99.90;;;;;;5010638;28;20226;-71
2022/06/02 00:48:21;;;;;;;17.90;15.68;;;10.90;99.90;;;;;;5011289;28;20194;-72
2022/06/02 00:50:59;;;;;;;21.58;15.70;;;10.90;99.90;;;;;;5018985;28;20284;-72
2022/06/02 00:57:30;;;;;;;21.15;17.60;;;10.90;99.90;;;;;;5010119;28;20626;-70
2022/06/02 00:59:41;;;;;;;19.40;17.30;;;10.90;99.90;;;;;;4990997;28;20742;-71
2022/06/02 01:02:07;;;;;;;18.65;16.65;;;10.90;99.90;;;;;;5012266;28;20346;-71
2022/06/02 01:04:39;;;;;;;21.63;16.35;;;10.80;99.90;;;;;;5012986;28;20609;-72
2022/06/02 01:07:19;;;;;;;21.35;18.95;;;10.70;99.90;;;;;;5009942;28;20236;-71
2022/06/02 01:10:02;;;;;;;21.27;17.25;;;10.70;99.90;;;;;;5006468;28;20284;-71
2022/06/02 01:13:04;;;;;;;20.27;16.60;;;10.70;99.90;;;;;;5005542;28;20548;-71
2022/06/02 01:15:44;;;;;;;22.73;19.55;;;10.70;99.90;;;;;;5006391;28;20201;-71
2022/06/02 01:18:20;;;;;;;22.95;16.08;;;10.70;99.90;;;;;;5008701;28;20697;-72
2022/06/02 01:21:03;;;;;;;22.17;19.08;;;10.70;99.90;;;;;;5010292;28;20327;-70
2022/06/02 01:24:13;;;;;;;19.13;16.13;;;10.60;99.90;;;;;;5008388;28;20221;-72
2022/06/02 01:27:06;;;;;;;20.80;18.58;;;10.60;99.90;;;;;;5014613;28;20276;-71
2022/06/02 01:30:11;;;;;;;21.23;15.63;;;10.60;99.90;;;;;;5014270;28;20209;-70
2022/06/02 01:32:51;;;;;;;25.75;19.20;;;10.50;99.90;;;;;;5010665;28;20220;-72
2022/06/02 01:35:26;;;;;;;20.75;16.88;;;10.50;99.90;;;;;;5015385;28;20266;-72
2022/06/02 01:38:03;;;;;;;18.35;16.42;;;10.50;99.90;;;;;;5015705;28;20300;-72
2022/06/02 01:40:36;;;;;;;19.98;17.00;;;10.50;99.90;;;;;;5014768;28;20285;-74
2022/06/02 01:43:10;;;;;;;25.63;17.55;;;10.50;99.90;;;;;;5014496;28;20691;-73
2022/06/02 01:46:01;;;;;;;23.50;18.83;;;10.40;99.90;;;;;;5015544;28;20289;-73
2022/06/02 01:48:36;;;;;;;18.17;15.23;;;10.40;99.90;;;;;;5014070;28;20194;-71
2022/06/02 01:51:08;;;;;;;19.95;15.77;;;10.40;99.90;;;;;;5013865;28;20643;-70
2022/06/02 01:53:46;;;;;;;22.90;16.85;;;10.40;99.90;;;;;;5014899;28;21590;-71
2022/06/02 01:56:32;;;;;;;17.67;15.82;;;10.40;99.90;;;;;;5014809;28;20647;-71
2022/06/02 01:59:14;;;;;;;17.52;14.07;;;10.40;99.90;;;;;;5012565;28;20303;-71
2022/06/02 02:01:47;;;;;;;20.17;16.08;;;10.40;99.90;;;;;;5007565;28;20226;-71
2022/06/02 02:04:32;;;;;;;20.35;17.38;;;10.40;99.90;;;;;;5013536;28;20646;-71
2022/06/02 02:07:07;;;;;;;18.65;15.80;;;10.40;99.90;;;;;;5013584;28;20279;-71
2022/06/02 02:09:48;;;;;;;19.05;16.75;;;10.40;99.90;;;;;;5012537;28;20207;-71
2022/06/02 02:12:25;;;;;;;22.20;17.73;;;10.30;99.90;;;;;;5013726;28;20725;-71
2022/06/02 02:15:12;;;;;;;23.42;18.35;;;10.30;99.90;;;;;;5016923;28;20675;-72
2022/06/02 02:18:06;;;;;;;21.27;17.23;;;10.20;99.90;;;;;;5013196;28;20698;-73
2022/06/02 02:20:44;;;;;;;22.13;18.30;;;10.20;99.90;;;;;;5023329;28;20197;-72
2022/06/02 02:23:20;;;;;;;25.55;17.77;;;10.10;99.90;;;;;;5013323;28;20274;-72
2022/06/02 02:25:53;;;;;;;18.30;16.20;;;10.10;99.90;;;;;;5014886;28;20314;-73
2022/06/02 02:28:32;;;;;;;19.60;16.83;;;10.00;99.90;;;;;;5013201;28;20209;-71
2022/06/02 02:31:08;;;;;;;23.17;18.05;;;10.00;99.90;;;;;;5014285;28;20232;-71
2022/06/02 02:33:48;;;;;;;22.25;18.98;;;10.00;99.90;;;;;;5008117;28;20260;-71
2022/06/02 02:36:25;;;;;;;25.33;18.60;;;10.00;99.90;;;;;;5015211;28;20266;-72
2022/06/02 02:39:03;;;;;;;22.10;18.58;;;10.00;99.90;;;;;;5014181;28;20240;-72
2022/06/02 02:41:39;;;;;;;23.58;19.02;;;9.90;99.90;;;;;;5013270;28;20229;-71
2022/06/02 02:44:14;;;;;;;26.83;20.75;;;9.90;99.90;;;;;;5011828;28;20236;-71
2022/06/02 02:46:52;;;;;;;23.58;20.02;;;9.90;99.90;;;;;;5014632;28;20254;-71
2022/06/02 02:49:26;;;;;;;24.70;19.85;;;9.90;99.90;;;;;;5016974;28;20196;-71
2022/06/02 02:52:01;;;;;;;26.55;20.45;;;9.90;99.90;;;;;;5013188;28;20227;-72
2022/06/02 02:54:36;;;;;;;29.05;19.85;;;9.80;99.90;;;;;;5015393;28;20220;-71
2022/06/02 02:57:10;;;;;;;25.42;20.15;;;9.80;99.90;;;;;;5012811;28;20712;-70
2022/06/02 02:59:45;;;;;;;24.85;20.98;;;9.80;99.90;;;;;;5012274;28;20244;-71
2022/06/02 03:02:23;;;;;;;24.45;20.73;;;9.80;99.90;;;;;;5013522;28;20220;-70
2022/06/02 03:04:57;;;;;;;29.25;24.30;;;9.80;99.90;;;;;;5022905;28;20223;-70
2022/06/02 03:07:26;;;;;;;28.65;20.73;;;9.80;99.90;;;;;;5024547;28;20246;-70
2022/06/02 03:10:10;;;;;;;26.20;21.75;;;9.80;99.90;;;;;;5019692;28;20197;-70
2022/06/02 03:13:04;;;;;;;27.13;20.58;;;9.80;99.90;;;;;;5011826;28;20231;-70
2022/06/02 03:15:38;;;;;;;26.40;21.13;;;9.80;99.90;;;;;;5009418;28;20564;-71
2022/06/02 03:18:47;;;;;;;25.40;21.23;;;9.80;99.90;;;;;;5010162;28;20721;-72
2022/06/02 03:21:20;;;;;;;28.00;22.17;;;9.70;99.90;;;;;;4998650;28;20287;-71
2022/06/02 03:24:18;;;;;;;27.80;23.05;;;9.80;99.90;;;;;;5017295;28;20216;-72
2022/06/02 03:30:16;;;;;;;27.27;22.45;;;9.80;99.90;;;;;;5020730;28;20296;-72
2022/06/02 03:33:10;;;;;;;28.48;21.80;;;9.80;99.90;;;;;;5022571;28;20343;-70
2022/06/02 03:35:47;;;;;;;28.25;24.05;;;9.80;99.90;;;;;;5018690;28;20292;-72
2022/06/02 03:38:34;;;;;;;30.05;24.95;;;9.90;99.90;;;;;;5023798;28;20221;-70
2022/06/02 03:41:13;;;;;;;29.63;23.25;;;9.90;99.90;;;;;;5022829;28;20262;-72
2022/06/02 03:43:53;;;;;;;28.75;21.77;;;9.90;99.90;;;;;;5014958;28;20251;-71
2022/06/02 03:46:34;;;;;;;28.70;22.48;;;9.90;99.90;;;;;;5012194;28;20582;-71
2022/06/02 03:49:20;;;;;;;27.58;23.15;;;9.90;99.90;;;;;;5012675;28;20717;-71
2022/06/02 03:51:54;;;;;;;32.33;23.92;;;10.00;99.90;;;;;;5011573;28;20312;-71
2022/06/02 03:54:45;;;;;;;25.70;20.98;;;10.00;99.90;;;;;;5010056;28;20208;-71
2022/06/02 03:57:38;;;;;;;26.70;21.33;;;10.00;99.90;;;;;;5012765;28;20295;-72
2022/06/02 04:00:15;;;;;;;27.88;22.10;;;10.10;99.90;;;;;;5009319;28;20197;-72
2022/06/02 04:02:48;;;;;;;28.17;23.20;;;10.20;99.90;;;;;;5013480;28;20629;-71
2022/06/02 04:05:47;;;;;;;23.67;21.13;;;10.20;99.90;;;;;;5026685;28;20315;-71
2022/06/02 04:08:41;;;;;;;25.88;20.63;;;10.30;99.90;;;;;;5011843;28;20279;-72
2022/06/02 04:14:28;;;;;;;19.60;17.58;;;11.80;99.90;;;;;;5011539;28;20208;-71
2022/06/02 04:17:01;;;;;;;18.52;15.27;;;12.50;99.90;;;;;;5012982;28;20202;-71
2022/06/02 04:22:51;;;;;;;18.90;14.85;;;14.30;99.90;;;;;;5010656;28;20239;-71
2022/06/02 04:25:30;;;;;;;17.70;13.88;;;15.30;99.90;;;;;;5006698;28;20236;-71
2022/06/02 04:28:05;;;;;;;13.20;11.85;;;15.90;99.90;;;;;;5012556;28;20246;-71
2022/06/02 04:30:43;;;;;;;13.35;11.95;;;16.80;99.90;;;;;;5009419;28;20203;-72
2022/06/02 04:33:16;;;;;;;15.50;12.43;;;17.40;99.90;;;;;;5013690;28;20314;-72
2022/06/02 04:35:57;;;;;;;12.60;11.40;;;17.80;99.90;;;;;;5012998;28;20588;-72
2022/06/02 04:38:32;;;;;;;14.07;12.20;;;18.30;99.90;;;;;;5017671;28;20502;-73
2022/06/02 04:41:09;;;;;;;12.63;11.43;;;18.90;99.90;;;;;;5011489;28;20534;-72
2022/06/02 04:43:46;;;;;;;13.17;11.67;;;19.20;99.90;;;;;;5013189;28;20500;-71
2022/06/02 04:46:26;;;;;;;11.93;10.70;;;19.70;98.90;;;;;;5010932;28;20539;-71
2022/06/02 04:48:59;;;;;;;14.57;13.17;;;20.00;97.60;;;;;;5014355;28;20445;-71
2022/06/02 04:51:33;;;;;;;14.07;11.80;;;20.00;96.70;;;;;;5014418;28;20531;-70
2022/06/02 04:54:08;;;;;;;12.37;11.07;;;20.20;96.30;;;;;;5011703;28;20451;-71
2022/06/02 04:56:41;;;;;;;11.50;10.20;;;20.40;95.80;;;;;;5012127;28;20443;-71
2022/06/02 04:59:16;;;;;;;13.30;11.30;;;20.30;95.50;;;;;;5014704;28;20822;-72
2022/06/02 05:02:01;;;;;;;10.23;9.33;;;20.60;95.40;;;;;;5011166;28;20880;-72
2022/06/02 05:04:43;;;;;;;16.60;10.03;;;20.80;94.50;;;;;;5012321;28;20461;-73
2022/06/02 05:07:26;;;;;;;11.80;8.80;;;21.00;94.40;;;;;;5014526;28;20531;-71
2022/06/02 05:10:06;;;;;;;12.60;11.40;;;21.30;93.60;;;;;;5013672;28;20472;-70
2022/06/02 05:12:56;;;;;;;10.10;9.10;;;21.50;92.60;;;;;;5012087;28;20565;-71
2022/06/02 05:15:56;;;;;;;9.77;8.87;;;21.60;92.40;;;;;;5022391;28;20515;-71
2022/06/02 05:18:58;;;;;;;9.30;8.30;;;22.00;91.60;;;;;;5017860;28;20527;-72
2022/06/02 05:21:38;;;;;;;9.70;8.80;;;22.70;90.70;;;;;;5008743;28;20451;-73
2022/06/02 05:24:26;;;;;;;10.63;9.70;;;23.30;89.10;;;;;;5028939;28;20486;-71
2022/06/02 05:27:28;;;;;;;9.60;8.70;;;23.20;87.60;;;;;;5013855;28;20509;-70
2022/06/02 05:30:14;;;;;;;9.60;8.70;;;23.20;87.20;;;;;;5015836;28;20434;-71
2022/06/02 05:33:06;;;;;;;10.43;9.33;;;23.20;86.60;;;;;;5013440;28;20543;-71
2022/06/02 05:36:00;;;;;;;9.97;8.57;;;23.40;86.50;;;;;;4996327;28;20463;-71
2022/06/02 05:39:02;;;;;;;9.63;7.77;;;23.90;85.60;;;;;;5010992;28;20570;-72
2022/06/02 05:41:55;;;;;;;8.07;7.23;;;24.10;84.00;;;;;;5027086;28;20462;-71
2022/06/02 05:44:41;;;;;;;10.80;6.70;;;24.10;83.40;;;;;;5025291;28;20535;-70
2022/06/02 05:47:28;;;;;;;9.10;7.50;;;24.00;83.40;;;;;;5032389;28;20443;-72
2022/06/02 05:50:07;;;;;;;7.57;6.00;;;24.10;82.50;;;;;;5033152;28;20439;-73
2022/06/02 05:52:51;;;;;;;6.60;6.00;;;24.30;81.70;;;;;;5031093;28;20549;-70
2022/06/02 05:55:30;;;;;;;10.20;6.40;;;24.60;81.00;;;;;;5029939;28;20518;-71
2022/06/02 05:58:13;;;;;;;6.80;6.20;;;24.90;79.90;;;;;;5017738;28;20451;-70
2022/06/02 06:00:52;;;;;;;8.03;5.37;;;24.90;78.50;;;;;;5023104;28;20475;-71
2022/06/02 06:03:32;;;;;;;8.47;6.03;;;25.10;78.90;;;;;;5027680;28;20498;-71
2022/06/02 06:06:04;;;;;;;5.97;4.87;;;25.20;78.70;;;;;;5022324;28;20481;-70
2022/06/02 06:08:45;;;;;;;7.23;6.53;;;25.30;77.40;;;;;;5001221;28;20442;-72
2022/06/02 06:11:24;;;;;;;5.80;5.30;;;25.10;77.80;;;;;;5013992;28;20498;-70
2022/06/02 06:14:15;;;;;;;8.63;5.90;;;25.10;77.70;;;;;;5010303;28;20515;-71
2022/06/02 06:16:48;;;;;;;5.63;5.13;;;25.40;77.80;;;;;;5007022;28;20440;-71
2022/06/02 06:19:37;;;;;;;10.33;6.07;;;25.60;77.20;;;;;;5014225;28;20512;-72
2022/06/02 06:22:17;;;;;;;7.40;5.20;;;26.00;75.90;;;;;;5013773;28;20912;-73
2022/06/02 06:25:12;;;;;;;5.53;5.03;;;26.20;74.80;;;;;;5014354;28;20478;-72
2022/06/02 06:27:49;;;;;;;4.00;3.60;;;26.20;74.60;;;;;;5013781;28;20770;-70
2022/06/02 06:30:27;;;;;;;4.70;4.10;;;26.10;73.80;;;;;;5025359;28;20497;-72
2022/06/02 06:33:09;;;;;;;4.90;3.77;;;26.40;73.90;;;;;;5014121;28;20467;-73
2022/06/02 06:35:50;;;;;;;5.17;3.70;;;26.20;72.60;;;;;;5024001;28;20532;-72
2022/06/02 06:38:36;;;;;;;4.43;3.60;;;25.80;73.20;;;;;;5002656;28;20530;-74
2022/06/02 06:41:24;;;;;;;5.37;3.60;;;25.60;73.20;;;;;;5018556;28;20987;-72
2022/06/02 06:44:08;;;;;;;4.37;3.97;;;25.00;74.80;;;;;;5013768;28;20444;-72
2022/06/02 06:46:41;;;;;;;7.23;2.77;;;23.50;76.60;;;;;;5012460;28;20988;-73
2022/06/02 06:49:15;;;;;;;5.33;3.87;;;22.90;79.10;;;;;;5013666;28;20529;-74
2022/06/02 06:51:50;;;;;;;3.40;2.80;;;21.70;84.10;;;;;;5010972;28;20534;-74
2022/06/02 06:54:29;;;;;;;6.63;2.40;;;21.90;85.10;;;;;;5013924;28;20497;-72
2022/06/02 06:57:03;;;;;;;5.40;3.10;;;22.30;84.20;;;;;;5007917;28;20463;-72
2022/06/02 06:59:45;;;;;;;3.37;2.90;;;23.30;82.30;;;;;;5007302;28;20838;-72
2022/06/02 07:02:22;;;;;;;4.43;2.90;;;23.50;80.70;;;;;;5011080;28;20550;-73
2022/06/02 07:05:03;;;;;;;3.13;2.83;;;23.90;80.80;;;;;;5013382;28;20456;-73
2022/06/02 07:07:39;;;;;;;4.40;2.93;;;24.20;79.00;;;;;;5010862;28;20513;-73
2022/06/02 07:10:12;;;;;;;5.37;2.80;;;22.10;80.80;;;;;;5013895;28;20448;-72
2022/06/02 07:12:52;;;;;;;5.10;3.87;;;21.40;84.00;;;;;;5011728;28;20522;-73
2022/06/02 07:15:28;;;;;;;4.93;4.07;;;20.60;87.40;;;;;;5015297;28;20451;-73
2022/06/02 07:18:02;;;;;;;6.60;3.37;;;21.00;87.90;;;;;;5013433;28;20513;-71
2022/06/02 07:20:42;;;;;;;2.90;2.50;;;20.60;90.00;;;;;;5012896;28;20597;-74
2022/06/02 07:23:18;;;;;;;5.00;3.40;;;21.40;90.10;;;;;;5028916;28;20849;-72
2022/06/02 07:25:58;;;;;;;4.37;2.70;;;23.00;86.40;;;;;;5012568;28;20477;-73
2022/06/02 07:28:35;;;;;;;5.17;3.40;;;23.40;82.50;;;;;;5010667;28;20521;-70
2022/06/02 07:31:16;;;;;;;4.20;3.07;;;23.00;81.60;;;;;;5013376;28;20527;-71
2022/06/02 07:33:57;;;;;;;5.10;4.20;;;22.10;83.20;;;;;;5013114;28;20965;-71
2022/06/02 07:36:59;;;;;;;3.47;3.17;;;21.70;85.30;;;;;;5018523;28;20525;-73
2022/06/02 07:39:59;;;;;;;4.03;2.80;;;21.70;88.90;;;;;;5011264;28;20570;-73
2022/06/02 07:42:55;;;;;;;3.80;3.20;;;22.70;84.70;;;;;;5012467;28;20542;-72
2022/06/02 07:45:38;;;;;;;3.30;2.80;;;22.10;83.70;;;;;;4994663;28;20443;-72
2022/06/02 07:48:34;;;;;;;5.30;3.53;;;22.00;85.70;;;;;;5011371;28;20459;-72
2022/06/02 07:51:11;;;;;;;3.77;2.43;;;22.90;85.10;;;;;;5012906;28;20456;-74
2022/06/02 07:54:07;;;;;;;4.07;2.77;;;22.60;83.40;;;;;;5009553;28;20464;-71
2022/06/02 07:56:56;;;;;;;3.47;2.27;;;21.90;84.20;;;;;;5010204;28;20483;-72
2022/06/02 07:59:39;;;;;;;3.10;1.90;;;23.20;85.00;;;;;;5012611;28;20483;-72
2022/06/02 08:02:38;;;;;;;4.10;2.60;;;24.60;79.60;;;;;;5011072;28;20476;-72
2022/06/02 08:05:19;;;;;;;3.60;2.10;;;23.30;79.20;;;;;;5011298;28;20460;-71
2022/06/02 08:07:54;;;;;;;4.20;3.27;;;23.50;80.10;;;;;;5008126;28;20475;-72
2022/06/02 08:10:35;;;;;;;4.83;2.60;;;24.90;79.70;;;;;;5012486;28;20446;-72
2022/06/02 08:13:12;;;;;;;3.57;2.33;;;25.30;77.00;;;;;;5013120;28;20514;-73
2022/06/02 08:15:50;;;;;;;3.23;2.00;;;25.30;76.80;;;;;;5014397;28;20539;-72
2022/06/02 08:18:40;;;;;;;2.60;2.37;;;24.90;76.70;;;;;;5014079;28;20523;-71
2022/06/02 08:21:17;;;;;;;3.70;2.60;;;25.20;76.40;;;;;;5011696;28;20487;-73
2022/06/02 08:24:11;;;;;;;2.77;2.20;;;25.60;74.70;;;;;;5014626;28;20478;-71
2022/06/02 08:26:47;;;;;;;4.37;2.13;;;24.80;73.90;;;;;;5018651;28;20526;-72
2022/06/02 08:29:28;;;;;;;5.27;2.47;;;24.30;76.00;;;;;;5024248;28;20436;-71
2022/06/02 08:32:19;;;;;;;3.83;2.47;;;23.50;78.20;;;;;;5023025;28;20888;-71
2022/06/02 08:34:55;;;;;;;4.10;2.60;;;22.40;80.60;;;;;;5015170;28;20462;-74
2022/06/02 08:37:29;;;;;;;7.40;2.23;;;21.40;83.10;;;;;;5019034;28;20447;-71
2022/06/02 08:40:15;;;;;;;3.23;2.20;;;21.80;85.90;;;;;;5013984;28;20497;-71
2022/06/02 08:43:27;;;;;;;5.00;2.97;;;22.90;81.50;;;;;;5020485;28;20470;-71
2022/06/02 08:46:30;;;;;;;7.17;5.03;;;24.20;79.40;;;;;;5035095;28;20507;-71
2022/06/02 08:49:29;;;;;;;6.53;2.57;;;24.50;76.00;;;;;;5027168;28;20465;-71
2022/06/02 08:52:31;;;;;;;3.60;2.60;;;23.50;75.40;;;;;;5012413;28;20467;-71
2022/06/02 08:55:35;;;;;;;5.90;3.20;;;22.40;78.30;;;;;;5014647;28;20439;-74
2022/06/02 08:58:41;;;;;;;3.90;2.20;;;21.90;81.80;;;;;;5017961;28;20608;-72
2022/06/02 09:01:19;;;;;;;3.90;3.07;;;21.30;83.70;;;;;;5015869;28;20550;-73
2022/06/02 09:04:33;;;;;;;3.53;2.50;;;20.30;86.80;;;;;;5015472;28;20444;-72
2022/06/02 09:07:50;;;;;;;3.50;2.27;;;19.60;90.00;;;;;;4978655;28;20543;-72
2022/06/02 09:10:32;;;;;;;3.70;2.53;;;19.30;91.50;;;;;;5012871;28;20981;-71
2022/06/02 09:13:28;;;;;;;3.13;2.57;;;19.40;91.90;;;;;;5014631;28;20543;-70
2022/06/02 09:16:18;;;;;;;6.27;2.50;;;19.30;92.00;;;;;;5013944;28;20933;-71
2022/06/02 09:19:36;;;;;;;6.07;2.87;;;19.30;92.30;;;;;;5012675;28;20475;-71
2022/06/02 09:22:18;;;;;;;3.70;3.10;;;19.60;93.90;;;;;;5015157;28;20478;-73
2022/06/02 09:24:52;;;;;;;2.97;2.47;;;20.70;91.20;;;;;;5031086;28;20875;-71
2022/06/02 09:28:01;;;;;;;2.30;2.10;;;20.90;90.30;;;;;;5013139;28;20780;-71
2022/06/02 09:30:41;;;;;;;4.00;2.70;;;20.80;89.60;;;;;;5008429;28;20957;-72
2022/06/02 09:33:51;;;;;;;2.90;2.20;;;20.30;89.80;;;;;;5014171;28;20809;-70
2022/06/02 09:36:43;;;;;;;5.90;2.97;;;20.00;90.90;;;;;;4981925;28;20465;-69
2022/06/02 09:39:24;;;;;;;6.83;3.73;;;20.30;91.50;;;;;;5016598;28;20450;-70
2022/06/02 09:42:21;;;;;;;2.60;1.90;;;20.70;90.00;;;;;;5010086;28;20481;-71
2022/06/02 09:44:58;;;;;;;3.07;2.67;;;20.70;90.00;;;;;;5013635;28;20898;-71
2022/06/02 09:47:57;;;;;;;7.13;2.47;;;20.50;90.10;;;;;;5008451;28;21049;-72
2022/06/02 09:50:53;;;;;;;2.80;2.50;;;20.30;90.80;;;;;;5013814;28;20530;-71
2022/06/02 09:53:46;;;;;;;3.00;2.10;;;20.50;90.30;;;;;;5013400;28;20474;-73
2022/06/02 09:56:41;;;;;;;2.50;2.30;;;20.30;90.70;;;;;;4991666;28;20532;-71
2022/06/02 09:59:25;;;;;;;3.03;2.67;;;20.40;90.80;;;;;;5013709;28;20479;-70
2022/06/02 10:02:05;;;;;;;3.17;2.77;;;20.10;90.50;;;;;;5014523;28;20456;-70
2022/06/02 10:04:56;;;;;;;4.77;3.03;;;19.80;90.80;;;;;;5005931;28;20861;-72
2022/06/02 10:07:48;;;;;;;2.57;1.87;;;19.80;92.00;;;;;;5014609;28;20530;-71
2022/06/02 10:10:48;;;;;;;2.80;2.53;;;20.10;91.30;;;;;;5012992;28;20439;-71
2022/06/02 10:13:44;;;;;;;6.63;2.23;;;20.30;90.90;;;;;;4995461;28;20567;-71
2022/06/02 10:17:03;;;;;;;3.30;1.90;;;20.50;90.20;;;;;;5006547;28;20460;-73
2022/06/02 10:19:55;;;;;;;2.57;2.37;;;20.50;89.50;;;;;;5002493;28;20518;-73
2022/06/02 10:22:31;;;;;;;6.10;2.40;;;19.80;90.00;;;;;;5009442;28;20515;-72
2022/06/02 10:25:21;;;;;;;3.10;1.97;;;19.70;90.90;;;;;;5010651;28;21012;-72
2022/06/02 10:28:19;;;;;;;5.90;2.10;;;19.70;91.50;;;;;;5013628;28;20444;-71
2022/06/02 10:31:21;;;;;;;2.30;2.03;;;19.30;91.50;;;;;;5012277;28;20441;-72
2022/06/02 10:34:20;;;;;;;3.60;2.03;;;19.20;91.70;;;;;;5013497;28;20451;-72
2022/06/02 10:37:11;;;;;;;3.23;1.90;;;19.20;91.90;;;;;;4983946;28;20494;-71
2022/06/02 10:39:54;;;;;;;3.13;1.90;;;19.20;91.90;;;;;;5007174;28;20451;-72
2022/06/02 10:42:42;;;;;;;2.63;2.10;;;19.70;91.00;;;;;;5015470;28;20465;-72
2022/06/02 10:45:25;;;;;;;2.90;2.00;;;19.90;90.40;;;;;;5013082;28;20478;-71
2022/06/02 10:48:21;;;;;;;4.37;2.20;;;20.20;89.70;;;;;;5016085;28;20462;-72
2022/06/02 10:51:20;;;;;;;3.73;2.07;;;20.40;88.80;;;;;;5010770;28;20475;-72
2022/06/02 10:54:10;;;;;;;4.50;2.20;;;20.40;88.80;;;;;;5012959;28;20505;-71
2022/06/02 10:56:56;;;;;;;2.67;2.10;;;20.70;88.90;;;;;;5012042;28;20536;-72
2022/06/02 10:59:51;;;;;;;3.90;2.60;;;21.00;87.00;;;;;;5011870;28;20466;-71
2022/06/02 11:03:12;;;;;;;6.47;2.13;;;21.00;86.10;;;;;;5012654;28;20475;-71
2022/06/02 11:06:17;;;;;;;2.83;1.70;;;20.40;86.20;;;;;;5010663;28;20474;-72
2022/06/02 11:09:31;;;;;;;3.23;2.10;;;20.40;87.00;;;;;;4988347;28;20450;-72
2022/06/02 11:12:32;;;;;;;4.07;2.20;;;20.30;87.30;;;;;;5012507;28;20467;-71
2022/06/02 11:15:20;;;;;;;2.43;1.97;;;20.20;88.40;;;;;;5010695;28;20523;-73
2022/06/02 11:18:16;;;;;;;3.07;2.50;;;20.20;87.50;;;;;;5021282;28;20440;-72
2022/06/02 11:21:31;;;;;;;6.30;4.67;;;20.10;88.30;;;;;;5016126;28;20491;-71
2022/06/02 11:24:34;;;;;;;4.00;2.40;;;20.00;88.00;;;;;;5026060;28;20435;-73
2022/06/02 11:27:51;;;;;;;3.67;1.97;;;19.90;89.30;;;;;;5021562;28;20447;-74
2022/06/02 11:30:54;;;;;;;3.10;2.03;;;20.20;89.80;;;;;;5003089;28;20621;-72
2022/06/02 11:34:08;;;;;;;6.20;2.10;;;20.40;89.50;;;;;;5031030;28;20502;-72
2022/06/02 11:37:07;;;;;;;3.13;1.97;;;20.70;89.10;;;;;;4974060;28;20881;-73
2022/06/02 11:40:17;;;;;;;4.87;2.57;;;20.90;88.20;;;;;;4967571;28;20453;-73
2022/06/02 11:43:07;;;;;;;4.40;2.87;;;21.00;87.80;;;;;;4938228;28;20491;-73
2022/06/02 11:45:54;;;;;;;1.90;1.60;;;21.10;88.50;;;;;;5008911;28;20489;-73
2022/06/02 11:48:43;;;;;;;4.50;2.87;;;21.30;88.30;;;;;;5013792;28;20460;-74
2022/06/02 11:51:33;;;;;;;4.57;2.80;;;21.60;86.80;;;;;;5008967;28;20455;-74
2022/06/02 11:54:28;;;;;;;2.73;2.07;;;21.40;86.00;;;;;;5010220;28;20824;-72
2022/06/02 11:57:27;;;;;;;4.80;2.60;;;21.50;86.30;;;;;;5008449;28;20509;-74
2022/06/02 12:00:41;;;;;;;3.17;2.07;;;21.30;85.90;;;;;;5022830;28;20450;-72
2022/06/02 12:03:33;;;;;;;5.17;2.40;;;21.10;87.60;;;;;;4994545;28;20484;-75
2022/06/02 12:06:27;;;;;;;3.87;2.20;;;21.10;88.30;;;;;;5008309;28;20452;-74
2022/06/02 12:09:17;;;;;;;3.20;1.90;;;21.10;87.40;;;;;;5005190;28;20442;-74
2022/06/02 12:11:56;;;;;;;2.70;2.50;;;21.00;87.30;;;;;;5006894;28;20477;-74
2022/06/02 12:14:45;;;;;;;3.20;2.20;;;20.80;86.40;;;;;;5013695;28;20460;-75
2022/06/02 12:17:35;;;;;;;4.63;2.30;;;20.60;86.40;;;;;;4993598;28;20460;-74
2022/06/02 12:20:24;;;;;;;3.30;2.20;;;20.90;86.90;;;;;;5011864;28;20794;-72
2022/06/02 12:23:19;;;;;;;2.63;2.13;;;21.20;85.50;;;;;;5012150;28;20553;-73
2022/06/02 12:26:02;;;;;;;5.47;2.37;;;21.30;85.20;;;;;;5012150;28;20525;-73
2022/06/02 12:28:51;;;;;;;7.40;2.53;;;21.50;86.30;;;;;;5007916;28;20463;-73
2022/06/02 12:31:43;;;;;;;3.00;2.27;;;21.70;86.20;;;;;;5010992;28;20479;-73
2022/06/02 12:34:35;;;;;;;3.50;2.07;;;22.00;86.20;;;;;;5004762;28;20478;-72
2022/06/02 12:37:27;;;;;;;8.60;2.70;;;22.00;84.80;;;;;;5009017;28;21569;-73
2022/06/02 12:40:16;;;;;;;2.10;1.73;;;21.80;84.80;;;;;;5013926;28;20462;-73
2022/06/02 12:43:12;;;;;;;3.63;2.43;;;21.50;84.50;;;;;;5014440;28;20462;-73
2022/06/02 12:45:46;;;;;;;2.07;1.87;;;21.60;85.00;;;;;;5012430;28;20472;-73
2022/06/02 12:48:55;;;;;;;3.00;1.70;;;21.50;84.10;;;;;;5005129;28;20824;-74
2022/06/02 12:51:41;;;;;;;2.97;2.10;;;21.50;83.30;;;;;;5007504;28;20445;-74
2022/06/02 12:54:57;;;;;;;3.33;1.80;;;21.50;82.50;;;;;;5005564;28;20995;-73
2022/06/02 12:58:01;;;;;;;2.67;1.77;;;21.70;82.00;;;;;;5013175;28;20528;-73
2022/06/02 13:00:48;;;;;;;4.13;2.43;;;21.60;83.10;;;;;;4986620;28;20558;-73
2022/06/02 13:04:06;;;;;;;7.57;1.87;;;21.50;83.40;;;;;;5012968;28;20467;-74
2022/06/02 13:07:14;;;;;;;2.53;2.00;;;21.50;83.70;;;;;;5012316;28;20463;-74
2022/06/02 13:10:18;;;;;;;1.83;1.53;;;21.50;84.90;;;;;;5005662;28;20916;-74
2022/06/02 13:13:35;;;;;;;5.90;2.50;;;21.50;84.20;;;;;;5005520;28;20507;-74
2022/06/02 13:16:35;;;;;;;2.60;1.60;;;21.60;82.70;;;;;;4970688;28;20488;-73
2022/06/02 13:19:32;;;;;;;1.70;1.20;;;21.60;81.20;;;;;;4956829;28;20977;-74
2022/06/02 13:22:25;;;;;;;2.63;1.40;;;21.50;81.50;;;;;;5006499;28;20493;-73
2022/06/02 13:25:21;;;;;;;2.30;1.70;;;21.50;83.20;;;;;;5013276;28;20531;-74
2022/06/02 13:28:27;;;;;;;2.50;1.80;;;21.70;83.20;;;;;;4995445;28;20457;-74
2022/06/02 13:31:31;;;;;;;3.53;1.73;;;21.70;83.30;;;;;;4989202;28;20463;-74
2022/06/02 13:34:28;;;;;;;2.63;2.13;;;21.30;82.50;;;;;;5008322;28;20525;-73
2022/06/02 13:37:19;;;;;;;7.13;2.40;;;21.10;83.50;;;;;;5011168;28;20501;-73
2022/06/02 13:40:16;;;;;;;8.13;3.30;;;21.00;83.90;;;;;;5007112;28;20828;-74
2022/06/02 13:43:28;;;;;;;3.67;2.00;;;21.10;83.50;;;;;;5016127;28;20462;-74
2022/06/02 13:46:20;;;;;;;2.30;2.03;;;21.20;82.90;;;;;;4990844;28;20526;-74
2022/06/02 13:49:30;;;;;;;4.50;2.03;;;21.30;81.90;;;;;;4992954;28;20534;-74
2022/06/02 13:52:45;;;;;;;7.83;2.20;;;21.50;81.70;;;;;;5016188;28;21027;-74
2022/06/02 13:58:47;;;;;;;2.27;1.80;;;21.10;83.30;;;;;;5011530;28;20805;-74
2022/06/02 14:01:34;;;;;;;2.37;1.50;;;21.00;83.70;;;;;;5009547;28;20579;-73
2022/06/02 14:04:34;;;;;;;2.80;1.77;;;21.00;82.90;;;;;;5009619;28;20532;-75
2022/06/02 14:07:14;;;;;;;2.27;1.40;;;21.00;82.70;;;;;;5003996;28;20462;-73
2022/06/02 14:09:51;;;;;;;3.37;2.00;;;21.10;83.60;;;;;;5007720;28;20852;-72
2022/06/02 14:12:39;;;;;;;4.60;1.90;;;21.40;82.50;;;;;;5015603;28;20482;-74
2022/06/02 14:15:17;;;;;;;4.27;2.00;;;21.50;82.40;;;;;;5018958;28;20456;-74
2022/06/02 14:18:13;;;;;;;2.37;1.70;;;21.30;81.40;;;;;;5018591;28;20453;-73
2022/06/02 14:20:51;;;;;;;3.47;2.30;;;21.10;81.80;;;;;;5008533;28;20494;-74
2022/06/02 14:23:28;;;;;;;7.23;2.13;;;21.00;82.40;;;;;;5019572;28;20467;-74
2022/06/02 14:26:07;;;;;;;2.13;1.77;;;21.10;83.10;;;;;;5016095;28;20504;-74
2022/06/02 14:28:51;;;;;;;4.50;1.67;;;21.00;82.30;;;;;;5010913;28;20448;-75
2022/06/02 14:31:26;;;;;;;3.00;2.03;;;21.20;82.30;;;;;;5016547;28;20919;-74
2022/06/02 14:34:03;;;;;;;2.33;1.90;;;21.40;81.80;;;;;;5030203;28;20449;-74
2022/06/02 14:36:36;;;;;;;1.67;1.30;;;21.50;81.10;;;;;;5025709;28;20440;-72